Time;durP1;ratioP1;P1;durP2;ratioP2;P2;SDS_P1;SDS_P2;PMS_P1;PMS_P2;Temp;Humidity;BMP_temperature;BMP_pressure;BME280_temperature;BME280_humidity;BME280_pressure;Samples;Min_cycle;Max_cycle;Signal;HPM_P1;HPM_P2
2024/02/29 00:00:34;;;;;;;50.05;26.65;;;10.60;63.60;;;5.80;100.00;95644.59;4990165;28;20033;-52
2024/02/29 00:03:00;;;;;;;51.35;26.00;;;10.60;64.40;;;5.80;100.00;95649.09;4992141;28;20117;-51
2024/02/29 00:05:25;;;;;;;48.58;26.48;;;10.60;63.60;;;5.82;100.00;95646.22;4991169;28;20018;-50
2024/02/29 00:07:51;;;;;;;48.63;26.42;;;10.60;63.60;;;5.82;100.00;95648.84;4991345;28;20096;-54
2024/02/29 00:10:17;;;;;;;50.45;26.73;;;10.60;63.70;;;5.82;100.00;95643.56;4987779;28;20485;-49
2024/02/29 00:12:43;;;;;;;52.03;26.77;;;10.60;63.60;;;5.82;100.00;95648.84;4991590;28;20048;-56
2024/02/29 00:19:10;;;;;;;53.95;26.90;;;10.60;63.60;;;5.77;100.00;95647.72;4990983;28;20578;-50
2024/02/29 00:21:35;;;;;;;48.10;25.23;;;10.50;63.60;;;5.79;100.00;95642.97;4990524;28;20041;-50
2024/02/29 00:24:01;;;;;;;49.40;25.77;;;10.50;63.60;;;5.77;100.00;95642.44;4991520;28;20489;-54
2024/02/29 00:26:28;;;;;;;50.30;25.77;;;10.60;63.60;;;5.79;100.00;95634.25;4991401;28;20026;-51
2024/02/29 00:28:54;;;;;;;51.53;25.40;;;10.50;63.50;;;5.74;100.00;95628.88;4987692;28;20444;-52
2024/02/29 00:31:22;;;;;;;50.10;26.30;;;10.60;63.50;;;5.72;100.00;95637.03;4991638;28;20034;-50
2024/02/29 00:33:48;;;;;;;49.25;25.67;;;10.60;63.50;;;5.67;100.00;95626.38;4990331;28;20272;-53
2024/02/29 00:36:15;;;;;;;47.78;26.35;;;10.60;63.50;;;5.70;100.00;95615.31;4990917;28;20033;-52
2024/02/29 00:38:41;;;;;;;47.63;26.73;;;10.50;63.50;;;5.72;100.00;95620.38;4991402;28;20026;-53
2024/02/29 00:41:07;;;;;;;52.78;26.77;;;10.50;63.50;;;5.57;100.00;95616.34;4986836;28;20041;-50
2024/02/29 00:43:34;;;;;;;47.97;25.80;;;10.50;63.50;;;5.60;100.00;95615.09;4991163;28;20018;-50
2024/02/29 00:46:00;;;;;;;49.30;26.85;;;10.50;63.50;;;5.67;100.00;95609.69;4992918;28;20511;-54
2024/02/29 00:48:27;;;;;;;55.42;27.17;;;10.50;63.50;;;5.63;100.00;95611.97;4991330;28;20585;-50
2024/02/29 00:50:53;;;;;;;53.45;26.83;;;10.50;63.60;;;5.64;100.00;95610.13;4990963;28;20159;-50
2024/02/29 00:53:19;;;;;;;54.65;26.63;;;10.50;63.60;;;5.61;100.00;95611.44;4989993;28;20440;-50
2024/02/29 00:55:44;;;;;;;54.90;26.48;;;10.50;63.70;;;5.63;100.00;95617.28;4991141;28;20033;-52
2024/02/29 00:58:10;;;;;;;53.10;27.40;;;10.40;63.70;;;5.64;100.00;95616.25;4991972;28;20030;-51
2024/02/29 01:00:36;;;;;;;47.97;25.38;;;10.40;63.70;;;5.67;100.00;95617.59;4987432;28;20112;-50
2024/02/29 01:03:03;;;;;;;53.30;26.88;;;10.40;63.80;;;5.63;100.00;95614.63;4974127;28;20057;-50
2024/02/29 01:05:29;;;;;;;52.13;26.13;;;10.40;63.80;;;5.62;100.00;95620.16;4974747;28;20033;-51
2024/02/29 01:07:55;;;;;;;52.20;26.20;;;10.40;63.80;;;5.60;100.00;95607.16;4969857;28;20113;-52
2024/02/29 01:10:20;;;;;;;49.50;26.45;;;10.40;63.90;;;5.62;100.00;95602.47;4978315;28;20464;-51
2024/02/29 01:12:46;;;;;;;50.92;26.70;;;10.40;63.90;;;5.64;100.00;95595.13;4967981;28;20225;-54
2024/02/29 01:15:13;;;;;;;58.83;27.88;;;10.40;63.90;;;5.64;100.00;95592.47;4973416;28;20033;-54
2024/02/29 01:17:42;;;;;;;55.00;27.67;;;10.40;64.00;;;5.61;100.00;95592.94;4973268;28;20045;-50
2024/02/29 01:20:09;;;;;;;57.20;27.30;;;10.40;64.00;;;5.60;100.00;95587.88;4975330;28;20579;-56
2024/02/29 01:22:36;;;;;;;55.65;27.05;;;10.40;64.00;;;5.62;100.00;95591.88;4973007;28;20510;-49
2024/02/29 01:25:03;;;;;;;52.53;26.60;;;10.40;64.00;;;5.63;100.00;95585.56;4973279;28;20025;-51
2024/02/29 01:27:29;;;;;;;50.72;27.60;;;10.40;64.00;;;5.59;100.00;95586.28;4953824;28;21410;-52
2024/02/29 01:29:55;;;;;;;46.70;24.88;;;10.40;64.10;;;5.57;100.00;95584.63;4977634;28;20488;-50
2024/02/29 01:32:21;;;;;;;51.63;26.92;;;10.40;64.10;;;5.56;100.00;95576.97;4970180;28;20477;-51
2024/02/29 01:34:48;;;;;;;55.28;28.05;;;10.40;64.00;;;5.57;100.00;95583.84;4972376;28;20084;-54
2024/02/29 01:37:14;;;;;;;54.45;27.85;;;10.40;64.00;;;5.53;100.00;95588.78;4971750;28;20026;-50
2024/02/29 01:39:43;;;;;;;51.20;26.65;;;10.40;64.00;;;5.50;100.00;95581.34;4970656;28;20374;-51
2024/02/29 01:42:11;;;;;;;57.05;28.38;;;10.30;64.00;;;5.52;100.00;95579.28;4974039;28;20093;-51
2024/02/29 01:44:56;;;;;;;55.28;26.67;;;10.40;64.00;;;5.46;100.00;95571.47;4976648;28;20069;-50
2024/02/29 01:47:24;;;;;;;51.70;26.92;;;10.40;64.20;;;5.44;100.00;95565.59;4972628;28;20025;-51
2024/02/29 01:49:56;;;;;;;49.45;26.48;;;10.40;64.00;;;5.41;100.00;95568.72;4973812;28;20022;-50
2024/02/29 01:52:26;;;;;;;;;;;10.30;64.00;;;5.43;100.00;95561.38;4968453;28;20034;-53
2024/02/29 01:54:52;;;;;;;49.35;26.75;;;10.30;63.80;;;5.41;100.00;95556.31;4971534;28;19956;-50
2024/02/29 01:57:18;;;;;;;56.75;26.65;;;10.30;63.90;;;5.44;100.00;95552.41;4973124;28;20076;-50
2024/02/29 01:59:46;;;;;;;54.25;26.85;;;10.30;63.90;;;5.34;100.00;95550.34;4969231;28;20033;-52
2024/02/29 02:02:12;;;;;;;54.83;27.42;;;10.30;64.70;;;5.27;100.00;95545.19;4972460;28;20041;-50
2024/02/29 02:04:38;;;;;;;55.17;27.95;;;10.30;64.00;;;5.27;100.00;95545.19;4987604;28;20026;-51
2024/02/29 02:07:04;;;;;;;57.42;29.55;;;10.20;63.90;;;5.29;100.00;95545.75;4989069;28;20459;-50
2024/02/29 02:09:31;;;;;;;59.53;30.13;;;10.20;63.90;;;5.26;100.00;95538.28;4989586;28;20396;-53
2024/02/29 02:11:56;;;;;;;55.78;30.30;;;10.20;64.00;;;5.19;100.00;95539.44;4987798;28;20366;-55
2024/02/29 02:14:23;;;;;;;60.10;29.98;;;10.10;64.00;;;5.13;100.00;95535.09;4973292;28;20021;-51
2024/02/29 02:16:49;;;;;;;58.33;29.45;;;10.10;64.00;;;5.08;100.00;95539.25;4984771;28;20029;-49
2024/02/29 02:19:16;;;;;;;60.22;30.20;;;10.00;64.00;;;5.08;100.00;95539.25;4989850;28;20056;-50
2024/02/29 02:21:43;;;;;;;59.00;29.23;;;10.00;64.10;;;5.04;100.00;95538.06;4986575;28;20037;-55
2024/02/29 02:24:09;;;;;;;57.05;29.13;;;10.00;64.20;;;5.06;100.00;95536.03;4989743;28;20037;-49
2024/02/29 02:26:36;;;;;;;58.95;28.95;;;10.00;64.20;;;5.06;100.00;95535.22;4989332;28;20033;-51
2024/02/29 02:29:06;;;;;;;57.65;28.30;;;10.00;64.30;;;5.05;100.00;95541.53;4984815;28;20108;-50
2024/02/29 02:31:32;;;;;;;57.38;28.77;;;9.90;64.40;;;5.05;100.00;95537.06;4989725;28;20488;-50
2024/02/29 02:33:58;;;;;;;57.05;29.55;;;9.90;64.40;;;5.04;100.00;95526.72;4965159;28;20076;-51
2024/02/29 02:36:24;;;;;;;58.58;28.60;;;9.90;64.40;;;5.04;100.00;95524.06;4993540;28;20527;-53
2024/02/29 02:38:51;;;;;;;61.80;28.98;;;9.90;64.50;;;5.05;100.00;95531.78;4993776;28;20435;-53
2024/02/29 02:41:17;;;;;;;54.47;28.08;;;9.90;64.50;;;5.03;100.00;95525.13;4992199;28;20033;-50
2024/02/29 02:43:48;;;;;;;53.78;28.55;;;9.90;64.50;;;4.97;100.00;95521.56;4990431;28;20025;-48
2024/02/29 02:46:14;;;;;;;52.67;26.50;;;9.90;64.60;;;4.93;100.00;95517.78;4989539;28;20048;-51
2024/02/29 02:48:40;;;;;;;57.15;26.85;;;9.90;64.60;;;4.99;100.00;95524.78;4993441;28;20029;-49
2024/02/29 02:51:05;;;;;;;55.90;28.23;;;9.80;64.60;;;5.00;100.00;95517.66;4993305;28;20056;-49
2024/02/29 02:53:31;;;;;;;53.88;27.55;;;9.80;64.60;;;4.99;100.00;95514.22;4990019;28;20022;-49
2024/02/29 02:55:57;;;;;;;54.30;27.08;;;9.90;64.70;;;4.99;100.00;95511.59;4992964;28;20017;-49
2024/02/29 02:58:23;;;;;;;54.65;27.85;;;9.90;64.70;;;5.03;100.00;95512.72;4994267;28;20077;-51
2024/02/29 03:00:49;;;;;;;62.13;28.00;;;9.90;64.70;;;5.05;100.00;95505.38;4994771;28;20034;-50
2024/02/29 03:03:14;;;;;;;56.78;27.77;;;9.90;64.70;;;5.03;100.00;95510.06;4993220;28;20036;-51
2024/02/29 03:05:40;;;;;;;54.95;28.50;;;9.90;64.70;;;5.00;100.00;95497.34;4991779;28;20045;-52
2024/02/29 03:08:07;;;;;;;55.00;28.35;;;9.90;64.70;;;4.99;100.00;95495.75;4992657;28;20026;-49
2024/02/29 03:10:33;;;;;;;51.22;26.38;;;9.90;64.60;;;4.99;100.00;95495.75;4991835;28;20029;-51
2024/02/29 03:12:59;;;;;;;53.45;26.38;;;9.90;64.60;;;5.00;100.00;95494.69;4993107;28;20056;-52
2024/02/29 03:15:25;;;;;;;57.70;28.83;;;9.90;64.70;;;4.97;100.00;95489.88;4995374;28;20128;-49
2024/02/29 03:17:55;;;;;;;57.65;27.70;;;9.90;64.70;;;4.97;100.00;95495.16;4988481;28;20101;-50
2024/02/29 03:20:24;;;;;;;52.38;28.17;;;9.80;64.70;;;5.00;100.00;95491.25;4988718;28;20025;-50
2024/02/29 03:22:50;;;;;;;57.63;28.98;;;9.80;65.50;;;4.99;100.00;95490.47;4990972;28;20638;-49
2024/02/29 03:25:17;;;;;;;56.95;27.98;;;9.90;64.70;;;5.03;100.00;95485.53;4989403;28;20053;-49
2024/02/29 03:27:43;;;;;;;57.35;27.13;;;9.80;64.70;;;4.98;100.00;95490.69;4990880;28;20113;-50
2024/02/29 03:30:09;;;;;;;52.65;27.27;;;9.80;64.70;;;5.01;100.00;95491.00;4991597;28;20116;-49
2024/02/29 03:32:35;;;;;;;53.80;26.80;;;9.80;64.70;;;4.97;100.00;95481.97;4992689;28;20079;-49
2024/02/29 03:35:05;;;;;;;54.95;26.50;;;9.80;64.70;;;5.00;100.00;95486.78;4991310;28;20022;-49
2024/02/29 03:37:31;;;;;;;53.42;27.45;;;9.80;64.70;;;5.00;100.00;95480.69;4988743;28;20447;-52
2024/02/29 03:39:57;;;;;;;56.63;28.38;;;9.80;64.70;;;5.00;100.00;95481.50;4982143;28;20018;-49
2024/02/29 03:42:23;;;;;;;55.75;28.17;;;9.80;64.70;;;4.96;100.00;95475.09;4989970;28;20025;-49
2024/02/29 03:44:48;;;;;;;55.17;27.88;;;9.80;64.70;;;4.93;100.00;95472.91;4981645;28;20103;-49
2024/02/29 03:47:14;;;;;;;55.80;27.55;;;9.80;64.70;;;4.96;100.00;95472.44;4984346;28;20495;-49
2024/02/29 03:49:40;;;;;;;53.70;27.00;;;9.80;64.70;;;4.93;100.00;95474.75;4988651;28;20407;-54
2024/02/29 03:52:06;;;;;;;58.15;28.45;;;9.80;64.70;;;4.88;100.00;95472.78;4986118;28;20473;-49
2024/02/29 03:54:32;;;;;;;53.33;27.40;;;9.80;64.70;;;4.74;100.00;95463.53;4987906;28;20028;-50
2024/02/29 03:56:58;;;;;;;56.42;28.92;;;9.70;64.60;;;4.75;100.00;95465.13;4978836;28;20026;-50
2024/02/29 03:59:25;;;;;;;58.15;28.83;;;9.80;64.70;;;4.78;100.00;95467.28;4989180;28;20444;-53
2024/02/29 04:01:51;;;;;;;59.80;28.55;;;9.70;64.70;;;4.83;100.00;95462.13;4990448;28;20050;-51
2024/02/29 04:04:19;;;;;;;56.95;27.38;;;9.70;64.90;;;4.78;100.00;95467.28;4984580;28;20018;-49
2024/02/29 04:06:46;;;;;;;52.83;27.98;;;9.70;64.90;;;4.74;100.00;95459.03;4992492;28;20022;-50
2024/02/29 04:09:13;;;;;;;61.08;28.55;;;9.70;64.90;;;4.74;100.00;95466.97;4984921;28;20402;-50
2024/02/29 04:11:39;;;;;;;54.72;28.77;;;9.60;64.90;;;4.77;100.00;95463.06;4986352;28;20025;-51
2024/02/29 04:14:05;;;;;;;61.45;29.63;;;9.60;64.90;;;4.81;100.00;95458.91;4985303;28;20444;-50
2024/02/29 04:16:38;;;;;;;56.00;27.90;;;9.60;65.00;;;4.80;100.00;95459.97;4992701;28;20049;-51
2024/02/29 04:19:05;;;;;;;55.55;28.73;;;9.60;65.10;;;4.81;100.00;95451.78;4977341;28;20022;-50
2024/02/29 04:21:34;;;;;;;58.63;27.95;;;9.60;65.00;;;4.79;100.00;95450.41;4989479;28;20069;-52
2024/02/29 04:24:01;;;;;;;58.63;28.40;;;9.60;65.10;;;4.82;100.00;95455.22;4986832;28;20469;-51
2024/02/29 04:26:28;;;;;;;61.65;29.08;;;9.60;65.10;;;4.82;100.00;95450.75;4988038;28;20037;-50
2024/02/29 04:28:54;;;;;;;58.78;29.08;;;9.70;65.10;;;4.83;100.00;95439.19;4986652;28;20780;-50
2024/02/29 04:31:21;;;;;;;52.13;27.45;;;9.60;65.10;;;4.88;100.00;95443.75;4986617;28;20040;-53
2024/02/29 04:33:55;;;;;;;60.92;29.05;;;9.70;65.20;;;4.86;100.00;95435.28;4990227;28;21371;-51
2024/02/29 04:36:21;;;;;;;59.30;29.13;;;9.70;65.20;;;4.85;100.00;95442.38;4974005;28;20065;-50
2024/02/29 04:38:47;;;;;;;63.25;29.83;;;9.70;65.20;;;4.85;100.00;95442.38;4991338;28;20116;-52
2024/02/29 04:41:12;;;;;;;53.92;26.80;;;9.70;65.10;;;4.83;100.00;95441.03;4990579;28;20034;-54
2024/02/29 04:43:38;;;;;;;56.30;28.30;;;9.70;65.20;;;4.78;100.00;95443.53;4975097;28;20025;-51
2024/02/29 04:46:04;;;;;;;57.67;28.25;;;9.70;65.20;;;4.77;100.00;95442.75;4990609;28;20030;-53
2024/02/29 04:48:30;;;;;;;51.80;27.55;;;9.70;65.10;;;4.83;100.00;95441.03;4991573;28;20109;-53
2024/02/29 04:50:56;;;;;;;63.65;31.83;;;9.70;65.20;;;4.76;100.00;95440.31;4991482;28;20100;-54
2024/02/29 04:53:21;;;;;;;54.80;28.08;;;9.70;65.20;;;4.75;100.00;95434.25;4989467;28;20026;-53
2024/02/29 04:55:47;;;;;;;55.15;26.52;;;9.70;65.20;;;4.75;100.00;95431.59;4988145;28;20030;-54
2024/02/29 04:58:13;;;;;;;57.50;27.17;;;9.70;65.20;;;4.73;100.00;95425.78;4989558;28;20496;-54
2024/02/29 05:00:39;;;;;;;54.50;27.67;;;9.70;65.20;;;4.76;100.00;95424.50;4990984;28;20041;-54
2024/02/29 05:03:05;;;;;;;59.03;28.25;;;9.70;65.20;;;4.79;100.00;95429.31;4990846;28;20049;-52
2024/02/29 05:05:31;;;;;;;62.70;29.58;;;9.70;65.20;;;4.82;100.00;95426.19;4990521;28;20025;-54
2024/02/29 05:07:57;;;;;;;56.58;28.38;;;9.70;65.30;;;4.84;100.00;95426.78;4990926;28;20390;-55
2024/02/29 05:10:23;;;;;;;63.10;29.77;;;9.70;65.30;;;4.84;100.00;95432.84;4984990;28;20030;-56
2024/02/29 05:12:53;;;;;;;58.08;28.90;;;9.70;65.30;;;4.83;100.00;95428.63;4991077;28;20112;-54
2024/02/29 05:15:19;;;;;;;59.58;27.95;;;9.70;65.30;;;4.84;100.00;95427.59;4989701;28;20033;-53
2024/02/29 05:17:49;;;;;;;57.15;28.77;;;9.70;65.30;;;4.86;100.00;95428.16;4989901;28;20025;-53
2024/02/29 05:20:15;;;;;;;52.80;27.05;;;9.70;65.30;;;4.85;100.00;95434.44;4990637;28;20509;-54
2024/02/29 05:22:42;;;;;;;57.67;28.60;;;9.80;65.30;;;4.87;100.00;95436.88;4989608;28;20547;-51
2024/02/29 05:25:11;;;;;;;58.65;29.98;;;9.80;65.30;;;4.88;100.00;95431.34;4990535;28;20033;-54
2024/02/29 05:27:38;;;;;;;55.40;27.73;;;9.80;65.20;;;4.88;100.00;95434.00;4989677;28;20029;-54
2024/02/29 05:30:05;;;;;;;59.47;29.30;;;9.80;65.20;;;4.85;100.00;95425.75;4990356;28;20017;-54
2024/02/29 05:32:31;;;;;;;60.25;28.85;;;9.80;65.20;;;4.86;100.00;95430.81;4990531;28;20030;-54
2024/02/29 05:34:57;;;;;;;59.08;28.77;;;9.80;65.10;;;4.88;100.00;95427.91;4988661;28;20096;-52
2024/02/29 05:37:23;;;;;;;57.53;28.63;;;9.90;65.20;;;4.90;100.00;95425.84;4989307;28;20509;-51
2024/02/29 05:39:49;;;;;;;59.85;28.20;;;9.90;65.10;;;4.87;100.00;95423.69;4989746;28;20381;-50
2024/02/29 05:42:14;;;;;;;59.28;29.38;;;9.80;65.00;;;4.90;100.00;95425.06;4990379;28;20042;-54
2024/02/29 05:44:40;;;;;;;62.55;28.42;;;9.80;65.00;;;4.90;100.00;95412.66;4990249;28;20025;-51
2024/02/29 05:47:07;;;;;;;58.83;28.42;;;9.80;65.00;;;4.91;100.00;95424.00;4986943;28;20026;-56
2024/02/29 05:49:34;;;;;;;61.58;29.10;;;9.80;65.10;;;4.88;100.00;95414.72;4990269;28;20025;-55
2024/02/29 05:52:00;;;;;;;58.92;28.17;;;9.80;65.80;;;4.83;100.00;95417.28;4986983;28;20614;-52
2024/02/29 05:54:26;;;;;;;62.72;28.58;;;9.80;65.90;;;4.72;100.00;95413.59;4989996;28;20034;-50
2024/02/29 05:56:58;;;;;;;62.97;29.05;;;9.70;65.00;;;4.69;100.00;95414.06;5001019;23;20409;-49
2024/02/29 05:59:24;;;;;;;57.72;29.27;;;9.70;65.00;;;4.66;100.00;95414.53;4981252;28;20057;-53
2024/02/29 06:01:50;;;;;;;60.47;29.10;;;9.70;65.10;;;4.63;100.00;95412.34;4986044;28;20037;-49
2024/02/29 06:04:16;;;;;;;60.35;29.08;;;9.60;65.10;;;4.61;100.00;95401.25;4987434;28;20037;-51
2024/02/29 06:06:43;;;;;;;59.95;29.77;;;9.60;65.20;;;4.61;100.00;95403.88;4984397;28;20033;-48
2024/02/29 06:09:13;;;;;;;60.28;30.13;;;9.60;65.30;;;4.64;100.00;95400.78;4977186;28;20054;-50
2024/02/29 06:11:39;;;;;;;61.63;28.27;;;9.50;65.30;;;4.67;100.00;95405.59;4981220;28;20397;-50
2024/02/29 06:14:05;;;;;;;61.47;29.88;;;9.50;65.40;;;4.69;100.00;95402.72;4986777;28;20021;-50
2024/02/29 06:16:31;;;;;;;60.40;29.45;;;9.60;65.40;;;4.68;100.00;95409.03;4985274;28;20026;-55
2024/02/29 06:18:57;;;;;;;63.90;29.25;;;9.60;65.50;;;4.70;100.00;95399.84;4987234;28;20388;-50
2024/02/29 06:21:23;;;;;;;60.35;29.15;;;9.50;65.40;;;4.66;100.00;95398.69;4977760;28;20422;-51
2024/02/29 06:23:49;;;;;;;58.95;28.33;;;9.60;65.50;;;4.66;100.00;95398.69;4983386;28;20022;-50
2024/02/29 06:26:15;;;;;;;64.18;31.17;;;9.60;65.50;;;4.69;100.00;95403.50;4988274;28;20120;-48
2024/02/29 06:28:41;;;;;;;63.85;30.38;;;9.60;65.50;;;4.71;100.00;95403.28;4983776;28;20034;-48
2024/02/29 06:31:08;;;;;;;59.13;28.52;;;9.60;65.50;;;4.73;100.00;95409.94;4980919;28;20018;-49
2024/02/29 06:33:35;;;;;;;62.75;28.13;;;9.60;65.50;;;4.73;100.00;95409.94;4958856;28;20075;-53
2024/02/29 06:36:03;;;;;;;59.97;29.33;;;9.70;65.50;;;4.77;100.00;95408.44;4977183;28;20033;-48
2024/02/29 06:38:30;;;;;;;60.40;29.95;;;9.70;65.50;;;4.77;100.00;95399.72;4983146;28;20022;-49
2024/02/29 06:40:56;;;;;;;64.90;30.08;;;9.70;66.20;;;4.81;100.00;95401.66;4983034;28;20116;-49
2024/02/29 06:43:21;;;;;;;61.78;29.58;;;9.80;65.50;;;4.79;100.00;95397.63;4987550;28;20096;-49
2024/02/29 06:45:50;;;;;;;68.00;30.83;;;9.80;65.40;;;4.80;100.00;95394.78;4981871;28;20431;-50
2024/02/29 06:48:18;;;;;;;58.92;29.65;;;9.80;65.30;;;4.84;100.00;95395.91;4966737;28;20459;-48
2024/02/29 06:50:45;;;;;;;56.05;28.65;;;9.90;65.40;;;4.87;100.00;95392.81;4983347;28;20026;-48
2024/02/29 06:53:12;;;;;;;61.38;30.13;;;9.90;65.30;;;4.83;100.00;95396.94;4981600;28;20026;-48
2024/02/29 06:55:38;;;;;;;65.07;30.35;;;9.90;65.30;;;4.81;100.00;95387.66;4981992;28;20038;-50
2024/02/29 06:58:05;;;;;;;68.28;31.08;;;9.90;65.30;;;4.76;100.00;95388.34;4981072;28;20033;-49
2024/02/29 07:00:32;;;;;;;57.42;27.65;;;9.90;65.20;;;4.60;100.00;95384.59;4983949;28;20369;-55
2024/02/29 07:03:02;;;;;;;60.65;29.20;;;9.90;65.10;;;4.52;100.00;95381.50;4978090;28;20042;-52
2024/02/29 07:05:28;;;;;;;57.22;27.50;;;9.90;65.10;;;4.57;100.00;95385.03;4978394;28;20033;-48
2024/02/29 07:07:55;;;;;;;56.42;28.13;;;9.90;65.10;;;4.47;100.00;95384.84;4979620;28;20456;-48
2024/02/29 07:10:21;;;;;;;59.30;28.75;;;9.90;65.80;;;4.47;100.00;95379.56;4981955;28;20548;-49
2024/02/29 07:12:48;;;;;;;60.05;29.00;;;9.90;65.10;;;4.51;100.00;95372.81;4980557;28;20033;-52
2024/02/29 07:15:14;;;;;;;53.90;26.90;;;9.90;65.20;;;4.59;100.00;95363.72;4983915;28;20022;-48
2024/02/29 07:17:40;;;;;;;61.47;29.67;;;9.90;65.20;;;4.67;100.00;95357.28;4979374;28;20116;-49
2024/02/29 07:20:07;;;;;;;60.55;28.30;;;9.90;65.20;;;4.72;100.00;95354.75;4981115;28;20543;-52
2024/02/29 07:22:33;;;;;;;55.47;28.92;;;10.00;65.30;;;4.83;100.00;95356.56;4987385;28;20388;-48
2024/02/29 07:24:59;;;;;;;64.30;30.30;;;10.00;65.30;;;4.82;100.00;95353.09;4985714;28;20017;-50
2024/02/29 07:27:25;;;;;;;58.13;28.95;;;10.10;65.30;;;4.90;100.00;95351.16;4988289;28;20040;-48
2024/02/29 07:29:51;;;;;;;56.72;27.90;;;10.20;65.20;;;4.84;100.00;95356.31;4982902;28;20381;-53
2024/02/29 07:32:16;;;;;;;51.92;27.25;;;10.20;65.10;;;4.81;100.00;95356.78;4980532;28;20117;-48
2024/02/29 07:34:42;;;;;;;60.08;28.13;;;10.20;65.00;;;4.84;100.00;95348.41;4987906;28;20013;-49
2024/02/29 07:37:08;;;;;;;54.95;27.85;;;10.30;65.00;;;4.89;100.00;95347.72;4984673;28;20033;-48
2024/02/29 07:39:34;;;;;;;59.88;28.35;;;10.30;64.90;;;5.03;100.00;95340.31;4987953;28;20392;-58
2024/02/29 07:42:00;;;;;;;54.85;27.92;;;10.40;64.90;;;5.10;100.00;95341.75;4982462;28;20072;-52
2024/02/29 07:44:25;;;;;;;52.67;27.38;;;10.50;64.90;;;5.27;100.00;95336.53;4983412;28;20069;-51
2024/02/29 07:46:51;;;;;;;51.63;27.77;;;10.60;64.80;;;5.33;100.00;95334.81;4982152;28;20026;-52
2024/02/29 07:49:17;;;;;;;53.05;26.85;;;10.70;64.70;;;5.37;100.00;95332.50;4988627;28;20026;-51
2024/02/29 07:51:43;;;;;;;53.28;27.65;;;10.80;64.60;;;5.38;100.00;95339.38;4985740;28;20098;-48
2024/02/29 07:54:09;;;;;;;56.03;28.55;;;10.90;64.50;;;5.58;100.00;95331.81;4984502;28;20021;-53
2024/02/29 07:56:43;;;;;;;53.33;27.60;;;11.00;64.40;;;5.68;100.00;95328.53;4988205;28;20492;-49
2024/02/29 07:59:09;;;;;;;52.70;26.42;;;11.10;64.30;;;5.75;100.00;95322.03;4984703;28;20443;-53
2024/02/29 08:01:35;;;;;;;50.22;27.33;;;11.20;64.10;;;5.88;100.00;95312.16;4983693;28;20045;-51
2024/02/29 08:04:01;;;;;;;50.65;27.73;;;11.40;64.10;;;5.95;100.00;95318.13;4985321;28;20459;-55
2024/02/29 08:06:27;;;;;;;49.63;25.95;;;11.50;63.80;;;6.06;100.00;95313.81;4982442;28;20060;-49
2024/02/29 08:08:53;;;;;;;48.40;26.23;;;11.60;63.60;;;6.16;100.00;95314.72;4987793;28;20145;-53
2024/02/29 08:11:19;;;;;;;45.25;25.77;;;11.70;63.40;;;6.37;100.00;95318.47;4987427;28;20530;-53
2024/02/29 08:13:44;;;;;;;48.03;24.60;;;11.80;63.30;;;6.43;100.00;95306.13;4990924;28;20045;-51
2024/02/29 08:16:10;;;;;;;45.90;25.30;;;12.00;63.10;;;6.57;100.00;95301.25;4983676;28;20059;-49
2024/02/29 08:18:38;;;;;;;45.53;24.98;;;12.20;63.00;;;6.64;100.00;95299.22;4991205;28;20022;-53
2024/02/29 08:21:04;;;;;;;47.88;25.85;;;12.30;62.70;;;6.78;100.00;95302.31;4985208;28;20025;-51
2024/02/29 08:23:30;;;;;;;44.50;23.83;;;12.40;62.30;;;6.87;100.00;95296.34;4988649;28;20268;-53
2024/02/29 08:25:56;;;;;;;46.38;26.23;;;12.60;62.10;;;6.85;100.00;95292.31;4984311;28;20021;-52
2024/02/29 08:28:22;;;;;;;45.60;24.80;;;12.70;61.70;;;6.79;100.00;95288.81;4982334;28;20076;-50
2024/02/29 08:30:48;;;;;;;43.28;24.60;;;12.90;61.30;;;6.99;100.00;95288.25;4985634;28;20053;-49
2024/02/29 08:33:14;;;;;;;42.33;24.02;;;13.00;61.00;;;7.17;99.56;95276.50;4981771;28;20040;-52
2024/02/29 08:35:39;;;;;;;44.65;24.88;;;13.10;60.80;;;7.41;99.46;95280.44;4983686;28;20484;-51
2024/02/29 08:38:05;;;;;;;43.55;24.27;;;13.20;60.60;;;7.61;97.10;95279.00;4984856;28;20032;-51
2024/02/29 08:40:31;;;;;;;47.13;26.85;;;13.50;60.60;;;7.76;95.54;95270.38;4984740;28;20041;-51
2024/02/29 08:42:57;;;;;;;40.60;23.40;;;13.60;60.10;;;7.86;94.55;95271.25;4985599;28;20041;-52
2024/02/29 08:45:23;;;;;;;41.40;23.88;;;13.80;59.90;;;8.03;92.98;95270.31;4986391;28;20112;-53
2024/02/29 08:47:50;;;;;;;39.42;24.38;;;14.00;59.60;;;8.24;91.45;95269.38;4987898;28;20021;-51
2024/02/29 08:50:16;;;;;;;41.08;24.42;;;14.20;59.30;;;8.44;90.18;95270.59;4978801;28;20440;-53
2024/02/29 08:52:42;;;;;;;43.10;24.52;;;14.40;59.00;;;8.52;88.35;95270.88;4988285;28;20473;-51
2024/02/29 08:55:09;;;;;;;38.72;23.23;;;14.60;58.70;;;8.57;88.69;95265.59;4982650;28;20033;-53
2024/02/29 08:57:35;;;;;;;39.95;23.95;;;14.80;58.40;;;8.69;87.02;95262.72;4978949;28;20025;-54
2024/02/29 09:00:02;;;;;;;36.55;22.75;;;14.90;58.10;;;8.85;86.58;95260.91;4982227;28;20056;-53
2024/02/29 09:02:28;;;;;;;39.60;23.17;;;15.10;57.70;;;9.10;85.53;95257.53;4984548;28;20036;-51
2024/02/29 09:04:54;;;;;;;36.72;23.00;;;15.30;57.40;;;9.17;83.11;95252.75;4981357;28;20433;-55
2024/02/29 09:07:19;;;;;;;39.92;22.95;;;15.50;57.10;;;9.40;82.59;95246.16;4981236;28;20026;-49
2024/02/29 09:09:45;;;;;;;36.28;22.40;;;15.70;56.80;;;9.62;82.25;95243.22;4980519;28;20033;-52
2024/02/29 09:12:12;;;;;;;34.50;21.35;;;15.90;56.50;;;9.76;80.56;95243.47;4982531;28;20029;-53
2024/02/29 09:14:39;;;;;;;31.27;19.63;;;16.10;56.30;;;9.62;77.43;95243.22;4983294;28;20101;-58
2024/02/29 09:17:06;;;;;;;38.67;23.42;;;16.20;55.70;;;9.77;78.59;95237.09;4988557;28;20029;-51
2024/02/29 09:19:36;;;;;;;37.45;22.80;;;16.40;55.30;;;9.91;77.44;95232.81;4984305;28;20362;-53
2024/02/29 09:22:03;;;;;;;33.28;21.48;;;16.50;55.00;;;10.05;77.09;95235.72;4983160;28;20024;-54
2024/02/29 09:24:28;;;;;;;33.33;20.33;;;16.60;54.70;;;10.17;75.85;95230.13;4983197;28;20045;-54
2024/02/29 09:26:54;;;;;;;34.40;20.50;;;16.60;54.40;;;10.26;74.27;95223.19;4987449;28;20588;-56
2024/02/29 09:29:21;;;;;;;32.00;19.52;;;16.60;54.00;;;10.15;72.92;95226.91;4980427;28;20030;-55
2024/02/29 09:31:47;;;;;;;27.58;17.02;;;16.70;53.60;;;10.25;71.59;95218.09;4982423;28;20112;-52
2024/02/29 09:34:13;;;;;;;24.35;14.25;;;16.70;53.20;;;10.26;67.60;95217.88;4983706;28;20451;-53
2024/02/29 09:36:39;;;;;;;25.92;15.70;;;16.80;52.80;;;10.25;69.24;95213.59;4990191;28;20037;-54
2024/02/29 09:39:07;;;;;;;27.63;15.82;;;16.80;52.50;;;10.32;67.43;95216.00;4990069;28;20071;-53
2024/02/29 09:41:34;;;;;;;27.08;16.67;;;16.90;52.20;;;10.47;67.75;95207.16;4989855;28;20083;-54
2024/02/29 09:44:02;;;;;;;24.40;15.63;;;17.00;52.00;;;10.59;68.03;95202.31;4989491;28;20022;-53
2024/02/29 09:46:28;;;;;;;22.67;13.68;;;17.10;51.70;;;10.42;65.29;95206.09;4987668;28;20025;-53
2024/02/29 09:48:54;;;;;;;23.58;14.32;;;17.10;51.30;;;10.58;66.13;95206.03;4983332;28;20151;-53
2024/02/29 09:51:21;;;;;;;20.40;12.73;;;17.10;51.00;;;10.68;65.13;95207.84;4988140;28;20034;-55
2024/02/29 09:53:54;;;;;;;25.63;15.63;;;17.20;50.80;;;10.70;64.34;95209.19;4978692;28;20480;-54
2024/02/29 09:56:27;;;;;;;23.73;14.17;;;17.20;50.20;;;10.73;64.03;95207.84;4995138;28;20472;-51
2024/02/29 09:58:55;;;;;;;22.90;13.18;;;17.20;50.20;;;10.58;64.73;95208.72;4987267;28;20021;-51
2024/02/29 10:01:22;;;;;;;23.98;13.30;;;17.30;50.10;;;10.36;64.25;95212.50;4969527;28;20029;-50
2024/02/29 10:03:48;;;;;;;20.42;13.15;;;17.20;49.80;;;10.21;63.56;95204.53;5002645;28;20551;-51
2024/02/29 10:06:15;;;;;;;22.05;14.38;;;17.20;49.50;;;10.27;64.92;95202.69;5008565;28;20029;-52
2024/02/29 10:08:41;;;;;;;25.23;14.95;;;17.10;49.30;;;10.27;66.62;95200.03;5006977;28;20134;-50
2024/02/29 10:11:07;;;;;;;21.70;13.43;;;17.10;49.20;;;10.26;64.90;95193.91;4978571;28;20458;-54